Time;durP1;ratioP1;P1;durP2;ratioP2;P2;SDS_P1;SDS_P2;PMS_P1;PMS_P2;Temp;Humidity;BMP_temperature;BMP_pressure;BME280_temperature;BME280_humidity;BME280_pressure;Samples;Min_cycle;Max_cycle;Signal;HPM_P1;HPM_P2
2022/06/19 00:00:10;;;;;;;29.52;28.02;;;;;;;;;;5013185;28;20041;-70
2022/06/19 00:02:36;;;;;;;29.58;27.98;;;;;;;;;;5014682;28;20033;-70
2022/06/19 00:05:02;;;;;;;23.55;22.17;;;;;;;;;;5016832;28;20038;-70
2022/06/19 00:07:28;;;;;;;34.22;32.42;;;;;;;;;;5012275;28;20034;-69
2022/06/19 00:09:53;;;;;;;31.17;29.35;;;;;;;;;;5014320;28;20041;-70
2022/06/19 00:12:18;;;;;;;28.77;27.05;;;;;;;;;;5014806;28;20479;-70
2022/06/19 00:14:45;;;;;;;32.45;30.13;;;;;;;;;;5015409;28;20715;-69
2022/06/19 00:17:10;;;;;;;30.67;29.05;;;;;;;;;;5017725;28;20396;-69
2022/06/19 00:19:36;;;;;;;37.85;35.92;;;;;;;;;;5019150;28;20037;-69
2022/06/19 00:22:03;;;;;;;25.00;23.63;;;;;;;;;;5018869;28;20064;-69
2022/06/19 00:24:29;;;;;;;25.73;24.30;;;;;;;;;;5018485;28;20382;-70
2022/06/19 00:26:56;;;;;;;27.98;26.50;;;;;;;;;;5018587;28;20041;-70
2022/06/19 00:29:21;;;;;;;30.35;28.75;;;;;;;;;;5023176;28;20029;-70
2022/06/19 00:31:47;;;;;;;36.03;34.15;;;;;;;;;;5019341;28;20549;-70
2022/06/19 00:34:12;;;;;;;37.63;35.65;;;;;;;;;;5019045;28;20561;-70
2022/06/19 00:36:37;;;;;;;39.42;37.38;;;;;;;;;;5019778;28;20380;-69
2022/06/19 00:39:03;;;;;;;42.40;40.17;;;;;;;;;;5017468;28;20057;-68
2022/06/19 00:41:34;;;;;;;33.88;31.90;;;;;;;;;;5019216;28;20036;-68
2022/06/19 00:44:04;;;;;;;33.33;31.48;;;;;;;;;;5016649;28;20091;-68
2022/06/19 00:46:44;;;;;;;37.40;35.47;;;;;;;;;;5016687;28;20044;-68
2022/06/19 00:49:13;;;;;;;44.15;41.63;;;;;;;;;;5018572;28;20356;-68
2022/06/19 00:51:39;;;;;;;37.10;35.10;;;;;;;;;;5019032;28;20076;-68
2022/06/19 00:54:07;;;;;;;37.95;35.88;;;;;;;;;;5020546;28;20033;-68
2022/06/19 00:56:33;;;;;;;38.38;36.38;;;;;;;;;;5018687;28;20043;-68
2022/06/19 00:58:58;;;;;;;36.88;34.97;;;;;;;;;;5018177;28;20029;-68
2022/06/19 01:01:26;;;;;;;36.22;34.13;;;;;;;;;;5017001;28;20479;-68
2022/06/19 01:04:18;;;;;;;34.67;32.88;;;;;;;;;;5018555;28;20036;-68
2022/06/19 01:06:43;;;;;;;30.65;29.05;;;;;;;;;;5017428;28;20180;-68
2022/06/19 01:09:08;;;;;;;28.08;26.48;;;;;;;;;;5019505;28;20104;-68
2022/06/19 01:11:38;;;;;;;29.58;27.92;;;;;;;;;;5015262;28;20502;-69
2022/06/19 01:14:07;;;;;;;25.95;24.33;;;;;;;;;;5018883;28;20033;-69
2022/06/19 01:16:33;;;;;;;28.85;27.27;;;;;;;;;;5032886;28;20033;-69
2022/06/19 01:18:59;;;;;;;25.58;24.23;;;;;;;;;;5018831;28;20513;-68
2022/06/19 01:21:55;;;;;;;21.17;19.88;;;;;;;;;;5017596;28;20049;-68
2022/06/19 01:24:29;;;;;;;26.50;25.02;;;;;;;;;;5018987;28;20539;-69
2022/06/19 01:26:59;;;;;;;28.38;26.77;;;;;;;;;;5018972;28;20044;-69
2022/06/19 01:29:28;;;;;;;28.52;26.88;;;;;;;;;;5018287;28;20034;-68
2022/06/19 01:31:55;;;;;;;44.28;41.38;;;;;;;;;;5018111;28;20049;-69
2022/06/19 01:34:28;;;;;;;81.82;76.35;;;;;;;;;;5018141;28;20033;-69
2022/06/19 01:37:03;;;;;;;93.45;87.05;;;;;;;;;;5017236;28;20045;-69
2022/06/19 01:39:34;;;;;;;134.02;124.57;;;;;;;;;;5017528;28;20047;-69
2022/06/19 01:42:02;;;;;;;142.18;132.27;;;;;;;;;;5016396;28;20538;-69
2022/06/19 01:44:28;;;;;;;136.18;126.97;;;;;;;;;;5014397;28;20048;-69
2022/06/19 01:46:54;;;;;;;129.43;120.22;;;;;;;;;;5017639;28;20042;-69
2022/06/19 01:49:19;;;;;;;143.98;133.38;;;;;;;;;;5017193;28;20068;-69
2022/06/19 01:51:45;;;;;;;158.05;147.07;;;;;;;;;;5016987;28;20038;-69
2022/06/19 01:54:21;;;;;;;133.23;124.40;;;;;;;;;;5016192;28;20030;-69
2022/06/19 01:56:50;;;;;;;126.10;117.15;;;;;;;;;;5018421;28;20469;-69
2022/06/19 01:59:15;;;;;;;124.53;115.55;;;;;;;;;;5018954;28;20463;-69
2022/06/19 02:01:42;;;;;;;107.40;100.22;;;;;;;;;;5001604;28;20034;-69
2022/06/19 02:04:07;;;;;;;104.68;97.97;;;;;;;;;;5033856;28;20033;-69
2022/06/19 02:06:44;;;;;;;63.78;59.05;;;;;;;;;;5017576;28;20479;-69
2022/06/19 02:09:10;;;;;;;67.40;63.38;;;;;;;;;;5019599;28;20041;-69
2022/06/19 02:11:36;;;;;;;43.33;40.78;;;;;;;;;;5016772;28;20032;-69
2022/06/19 02:14:06;;;;;;;46.13;43.25;;;;;;;;;;5016417;28;20038;-69
2022/06/19 02:16:35;;;;;;;44.75;41.83;;;;;;;;;;5013821;28;20041;-69
2022/06/19 02:19:01;;;;;;;48.10;45.30;;;;;;;;;;5016311;28;20043;-69
2022/06/19 02:21:39;;;;;;;43.67;41.08;;;;;;;;;;5018463;28;20034;-69
2022/06/19 02:24:07;;;;;;;33.70;30.35;;;;;;;;;;5015675;28;20464;-69
2022/06/19 02:26:36;;;;;;;45.20;42.50;;;;;;;;;;5016872;28;20021;-69
2022/06/19 02:29:03;;;;;;;41.13;38.75;;;;;;;;;;5016649;28;20076;-69
2022/06/19 02:31:29;;;;;;;45.08;42.50;;;;;;;;;;5015872;28;20112;-69
2022/06/19 02:34:03;;;;;;;42.60;40.05;;;;;;;;;;5016637;28;20100;-69
2022/06/19 02:36:35;;;;;;;40.90;38.47;;;;;;;;;;5016754;28;20082;-69
2022/06/19 02:39:22;;;;;;;44.80;42.00;;;;;;;;;;5015355;28;20041;-69
2022/06/19 02:42:02;;;;;;;41.45;38.85;;;;;;;;;;5018031;28;20026;-69
2022/06/19 02:44:35;;;;;;;41.33;38.83;;;;;;;;;;5032029;28;20041;-70
2022/06/19 02:47:00;;;;;;;40.03;37.65;;;;;;;;;;5014341;28;20573;-69
2022/06/19 02:49:26;;;;;;;31.40;29.63;;;;;;;;;;5017829;28;20037;-69
2022/06/19 02:51:51;;;;;;;40.30;37.83;;;;;;;;;;5017324;28;20045;-69
2022/06/19 02:54:17;;;;;;;42.83;40.33;;;;;;;;;;5017474;28;20087;-69
2022/06/19 02:56:42;;;;;;;42.53;39.90;;;;;;;;;;5016837;28;20085;-70
2022/06/19 02:59:07;;;;;;;42.42;39.90;;;;;;;;;;5016827;28;20435;-69
2022/06/19 03:01:33;;;;;;;40.40;37.97;;;;;;;;;;5031214;28;20021;-69
2022/06/19 03:03:58;;;;;;;40.47;38.10;;;;;;;;;;5022319;28;20519;-69
2022/06/19 03:06:24;;;;;;;49.15;46.08;;;;;;;;;;5017795;28;20040;-69
2022/06/19 03:08:49;;;;;;;55.22;51.80;;;;;;;;;;5023222;28;20033;-69
2022/06/19 03:11:14;;;;;;;46.00;42.92;;;;;;;;;;5015815;28;20132;-70
2022/06/19 03:13:40;;;;;;;54.05;50.47;;;;;;;;;;5016143;28;20465;-69
2022/06/19 03:16:07;;;;;;;43.67;40.90;;;;;;;;;;5016005;28;20922;-69
2022/06/19 03:18:34;;;;;;;49.25;46.13;;;;;;;;;;5016416;28;20032;-69
2022/06/19 03:21:00;;;;;;;43.03;40.45;;;;;;;;;;5014818;28;20627;-69
2022/06/19 03:23:26;;;;;;;56.85;53.10;;;;;;;;;;5016193;28;20037;-68
2022/06/19 03:25:52;;;;;;;45.00;42.03;;;;;;;;;;5017492;28;20034;-70
2022/06/19 03:28:17;;;;;;;57.25;53.38;;;;;;;;;;5015030;28;20048;-71
2022/06/19 03:30:43;;;;;;;69.28;64.32;;;;;;;;;;5016330;28;20037;-70
2022/06/19 03:33:08;;;;;;;84.13;77.68;;;;;;;;;;5033213;28;20088;-69
2022/06/19 03:35:34;;;;;;;68.90;64.25;;;;;;;;;;5016720;28;20025;-69
2022/06/19 03:37:59;;;;;;;113.53;104.97;;;;;;;;;;5015562;28;20034;-69
2022/06/19 03:40:24;;;;;;;91.43;84.78;;;;;;;;;;5012066;28;20447;-69
2022/06/19 03:42:49;;;;;;;68.93;64.28;;;;;;;;;;5014296;28;20037;-69
2022/06/19 03:45:15;;;;;;;114.45;106.43;;;;;;;;;;5013947;28;20109;-68
2022/06/19 03:47:40;;;;;;;98.07;90.80;;;;;;;;;;5014977;28;20038;-70
2022/06/19 03:50:07;;;;;;;119.97;111.97;;;;;;;;;;5017616;28;20032;-70
2022/06/19 03:52:32;;;;;;;104.30;96.97;;;;;;;;;;5015922;28;20490;-71
2022/06/19 03:54:58;;;;;;;130.55;121.55;;;;;;;;;;5016991;28;20068;-70
2022/06/19 03:57:23;;;;;;;106.13;98.55;;;;;;;;;;5019415;28;20112;-71
2022/06/19 03:59:49;;;;;;;102.20;94.97;;;;;;;;;;5020473;28;20033;-71
2022/06/19 04:02:14;;;;;;;113.25;105.45;;;;;;;;;;5022235;28;20022;-70
2022/06/19 04:04:39;;;;;;;130.10;120.57;;;;;;;;;;5021193;28;20410;-71
2022/06/19 04:07:06;;;;;;;103.30;96.38;;;;;;;;;;5020593;28;20029;-71
2022/06/19 04:09:31;;;;;;;82.22;76.43;;;;;;;;;;5021701;28;20021;-71
2022/06/19 04:11:57;;;;;;;76.35;71.25;;;;;;;;;;5020783;28;20156;-71
2022/06/19 04:14:22;;;;;;;65.25;61.10;;;;;;;;;;5019011;28;20610;-71
2022/06/19 04:16:47;;;;;;;64.82;60.60;;;;;;;;;;5021322;28;20038;-70
2022/06/19 04:19:13;;;;;;;76.43;71.32;;;;;;;;;;5019561;28;20037;-69
2022/06/19 04:21:43;;;;;;;59.47;55.60;;;;;;;;;;5020370;28;20052;-70
2022/06/19 04:24:12;;;;;;;59.72;56.17;;;;;;;;;;5017974;28;20706;-70
2022/06/19 04:26:38;;;;;;;45.22;42.58;;;;;;;;;;5021080;28;20065;-69
2022/06/19 04:29:05;;;;;;;51.75;48.75;;;;;;;;;;5021433;28;20037;-69
2022/06/19 04:31:30;;;;;;;77.07;72.10;;;;;;;;;;5018288;28;20033;-70
2022/06/19 04:33:56;;;;;;;57.00;53.60;;;;;;;;;;5018796;28;20037;-70
2022/06/19 04:36:24;;;;;;;39.50;37.22;;;;;;;;;;5022460;28;20033;-69
2022/06/19 04:38:50;;;;;;;42.42;39.97;;;;;;;;;;5018125;28;20041;-70
2022/06/19 04:41:20;;;;;;;67.45;63.05;;;;;;;;;;5021626;28;20179;-70
2022/06/19 04:43:45;;;;;;;57.53;53.10;;;;;;;;;;5020601;28;20052;-69
2022/06/19 04:46:11;;;;;;;77.40;72.40;;;;;;;;;;5017779;28;20030;-70
2022/06/19 04:48:38;;;;;;;48.53;45.67;;;;;;;;;;5016611;28;20037;-70
2022/06/19 04:51:04;;;;;;;51.42;48.25;;;;;;;;;;5020937;28;20175;-70
2022/06/19 04:53:29;;;;;;;47.97;45.05;;;;;;;;;;5020236;28;20057;-69
2022/06/19 04:55:55;;;;;;;64.95;60.83;;;;;;;;;;5025366;28;20034;-69
2022/06/19 04:58:22;;;;;;;66.13;61.90;;;;;;;;;;5018251;28;20029;-68
2022/06/19 05:00:49;;;;;;;89.82;83.85;;;;;;;;;;5017677;28;20037;-68
2022/06/19 05:03:16;;;;;;;54.05;50.25;;;;;;;;;;5017790;28;20048;-68
2022/06/19 05:05:42;;;;;;;42.38;39.85;;;;;;;;;;5018701;28;20042;-68
2022/06/19 05:08:07;;;;;;;46.55;43.83;;;;;;;;;;5019546;28;20029;-68
2022/06/19 05:10:33;;;;;;;42.30;39.97;;;;;;;;;;5015117;28;20112;-68
2022/06/19 05:12:58;;;;;;;63.42;59.47;;;;;;;;;;5019487;28;20028;-69
2022/06/19 05:15:23;;;;;;;56.08;52.70;;;;;;;;;;5015564;28;20026;-69
2022/06/19 05:17:50;;;;;;;44.83;42.33;;;;;;;;;;5017224;28;20034;-69
2022/06/19 05:20:16;;;;;;;53.25;50.03;;;;;;;;;;5014634;28;20041;-68
2022/06/19 05:22:41;;;;;;;47.90;44.92;;;;;;;;;;5018415;28;20714;-70
2022/06/19 05:25:08;;;;;;;47.50;44.80;;;;;;;;;;5021975;28;20042;-70
2022/06/19 05:27:40;;;;;;;32.40;30.58;;;;;;;;;;5019966;28;20033;-70
2022/06/19 05:30:07;;;;;;;25.60;24.20;;;;;;;;;;5017705;28;20026;-70
2022/06/19 05:32:32;;;;;;;18.45;17.35;;;;;;;;;;5016762;28;20378;-70
2022/06/19 05:34:58;;;;;;;25.05;23.65;;;;;;;;;;5021009;28;20112;-70
2022/06/19 05:37:23;;;;;;;18.25;17.15;;;;;;;;;;5016569;28;20033;-68
2022/06/19 05:39:48;;;;;;;20.90;19.70;;;;;;;;;;5016543;28;20045;-69
2022/06/19 05:42:15;;;;;;;18.75;17.73;;;;;;;;;;5017068;28;20025;-69
2022/06/19 05:44:40;;;;;;;26.05;23.40;;;;;;;;;;5017596;28;20053;-69
2022/06/19 05:47:05;;;;;;;14.52;13.68;;;;;;;;;;5014170;28;20080;-70
2022/06/19 05:49:33;;;;;;;17.38;16.38;;;;;;;;;;5015648;28;20035;-70
2022/06/19 05:52:00;;;;;;;18.50;17.50;;;;;;;;;;5014221;28;20045;-70
2022/06/19 05:54:27;;;;;;;16.60;15.50;;;;;;;;;;5016923;28;20490;-69
2022/06/19 05:56:52;;;;;;;17.23;16.13;;;;;;;;;;5016642;28;20495;-70
2022/06/19 05:59:17;;;;;;;19.52;18.42;;;;;;;;;;5013490;28;20033;-70
2022/06/19 06:01:43;;;;;;;21.92;20.73;;;;;;;;;;5014955;28;20063;-70
2022/06/19 06:04:08;;;;;;;20.85;19.63;;;;;;;;;;5017246;28;20355;-68
2022/06/19 06:06:34;;;;;;;24.65;23.25;;;;;;;;;;5013877;28;20087;-68
2022/06/19 06:08:59;;;;;;;32.10;30.40;;;;;;;;;;5013368;28;20678;-69
2022/06/19 06:11:25;;;;;;;31.05;29.45;;;;;;;;;;5016588;28;20033;-68
2022/06/19 06:13:50;;;;;;;46.92;44.35;;;;;;;;;;5014881;28;20813;-68
2022/06/19 06:16:18;;;;;;;53.78;51.05;;;;;;;;;;5021003;28;20029;-69
2022/06/19 06:18:44;;;;;;;52.53;49.83;;;;;;;;;;5018753;28;20049;-69
2022/06/19 06:21:15;;;;;;;52.65;49.95;;;;;;;;;;5018473;28;20041;-69
2022/06/19 06:23:41;;;;;;;73.10;68.43;;;;;;;;;;5015279;28;20025;-71
2022/06/19 06:26:12;;;;;;;85.90;81.30;;;;;;;;;;5015693;28;20477;-70
2022/06/19 06:28:40;;;;;;;87.63;83.32;;;;;;;;;;5014775;28;20040;-70
2022/06/19 06:31:06;;;;;;;96.07;91.35;;;;;;;;;;5014059;28;20084;-70
2022/06/19 06:33:31;;;;;;;90.53;86.03;;;;;;;;;;5016802;28;20037;-69
2022/06/19 06:35:57;;;;;;;96.28;91.38;;;;;;;;;;5018740;28;20518;-70
2022/06/19 06:38:24;;;;;;;81.93;77.88;;;;;;;;;;5018502;28;20053;-69
2022/06/19 06:40:49;;;;;;;72.35;68.75;;;;;;;;;;5018742;28;20037;-70
2022/06/19 06:43:15;;;;;;;83.18;78.90;;;;;;;;;;5019019;28;20379;-70
2022/06/19 06:45:41;;;;;;;78.13;74.03;;;;;;;;;;5015345;28;20095;-70
2022/06/19 06:48:06;;;;;;;87.45;83.05;;;;;;;;;;5016217;28;20041;-70
2022/06/19 06:50:32;;;;;;;88.57;84.18;;;;;;;;;;5016905;28;20100;-71
2022/06/19 06:52:57;;;;;;;104.00;98.88;;;;;;;;;;5017693;28;20037;-70
2022/06/19 06:55:23;;;;;;;136.73;129.55;;;;;;;;;;5015861;28;20037;-70
2022/06/19 06:57:48;;;;;;;132.82;126.20;;;;;;;;;;5015343;28;20033;-69
2022/06/19 07:00:21;;;;;;;132.80;126.05;;;;;;;;;;5016727;28;20037;-69
2022/06/19 07:02:47;;;;;;;148.52;141.20;;;;;;;;;;5022676;28;20049;-69
2022/06/19 07:05:13;;;;;;;148.60;141.25;;;;;;;;;;5014495;28;20026;-69
2022/06/19 07:07:39;;;;;;;147.93;140.50;;;;;;;;;;5013874;28;20045;-69
2022/06/19 07:10:05;;;;;;;149.05;141.48;;;;;;;;;;5014715;28;20033;-68
2022/06/19 07:12:30;;;;;;;153.05;145.50;;;;;;;;;;5015148;28;20064;-68
2022/06/19 07:14:56;;;;;;;142.05;135.00;;;;;;;;;;5015526;28;20026;-67
2022/06/19 07:17:21;;;;;;;146.55;139.15;;;;;;;;;;5019262;28;20029;-69
2022/06/19 07:19:47;;;;;;;163.77;155.60;;;;;;;;;;5016193;28;20484;-69
2022/06/19 07:22:15;;;;;;;155.85;148.13;;;;;;;;;;5017153;28;20053;-69
2022/06/19 07:24:41;;;;;;;155.85;148.15;;;;;;;;;;5015364;28;20041;-68
2022/06/19 07:27:06;;;;;;;137.38;130.57;;;;;;;;;;5017668;28;20081;-68
2022/06/19 07:29:32;;;;;;;140.38;133.45;;;;;;;;;;5016049;28;20092;-67
2022/06/19 07:31:57;;;;;;;122.68;116.20;;;;;;;;;;5013760;28;20468;-66
2022/06/19 07:34:22;;;;;;;130.95;124.47;;;;;;;;;;5009955;28;20041;-68
2022/06/19 07:36:48;;;;;;;121.00;114.90;;;;;;;;;;5012005;28;20108;-67
2022/06/19 07:39:13;;;;;;;118.25;112.35;;;;;;;;;;5011393;28;20033;-67
2022/06/19 07:41:38;;;;;;;102.53;97.25;;;;;;;;;;5012200;28;20117;-67
2022/06/19 07:44:04;;;;;;;111.20;105.70;;;;;;;;;;5012010;28;20503;-68
2022/06/19 07:46:29;;;;;;;86.95;82.60;;;;;;;;;;5013062;28;20565;-68
2022/06/19 07:51:38;;;;;;;101.43;96.43;;;;;;;;;;5012338;28;20029;-67
2022/06/19 07:54:04;;;;;;;75.97;72.10;;;;;;;;;;5010463;28;20063;-67
2022/06/19 07:56:29;;;;;;;73.05;69.28;;;;;;;;;;5012185;28;20065;-68
2022/06/19 07:58:55;;;;;;;81.38;77.22;;;;;;;;;;5011109;28;20038;-66
2022/06/19 08:01:21;;;;;;;71.25;67.60;;;;;;;;;;5028558;28;20034;-69
2022/06/19 08:03:46;;;;;;;79.97;75.88;;;;;;;;;;5011711;28;20033;-70
2022/06/19 08:06:14;;;;;;;82.80;78.60;;;;;;;;;;5011151;28;20080;-67
2022/06/19 08:08:40;;;;;;;78.22;74.22;;;;;;;;;;5012832;28;20029;-60
2022/06/19 08:11:06;;;;;;;108.32;102.95;;;;;;;;;;5014316;28;20045;-62
2022/06/19 08:13:34;;;;;;;124.43;118.22;;;;;;;;;;5017096;28;20048;-61
2022/06/19 08:16:05;;;;;;;182.40;173.43;;;;;;;;;;5014760;28;20026;-60
2022/06/19 08:18:32;;;;;;;127.38;121.07;;;;;;;;;;5014009;28;20040;-62
2022/06/19 08:20:58;;;;;;;244.23;232.13;;;;;;;;;;5016048;28;20491;-61
2022/06/19 08:23:23;;;;;;;246.63;234.57;;;;;;;;;;5020481;28;20073;-61
2022/06/19 08:25:49;;;;;;;257.88;245.18;;;;;;;;;;5015118;28;20032;-62
2022/06/19 08:28:18;;;;;;;258.35;245.73;;;;;;;;;;5018231;28;20482;-62
2022/06/19 08:30:44;;;;;;;267.95;254.82;;;;;;;;;;5016550;28;20056;-62
2022/06/19 08:33:10;;;;;;;237.70;226.05;;;;;;;;;;5013174;28;20037;-62
2022/06/19 08:35:42;;;;;;;256.15;243.27;;;;;;;;;;5015129;28;20028;-62
2022/06/19 08:38:15;;;;;;;268.33;255.13;;;;;;;;;;5016416;28;20603;-60
2022/06/19 08:41:07;;;;;;;237.75;225.98;;;;;;;;;;5019420;28;20502;-60
2022/06/19 08:43:54;;;;;;;263.48;250.52;;;;;;;;;;5020081;28;20059;-60
2022/06/19 08:46:26;;;;;;;286.13;272.10;;;;;;;;;;5017357;28;20481;-61
2022/06/19 08:49:10;;;;;;;229.25;217.98;;;;;;;;;;5017837;28;20053;-60
2022/06/19 08:52:01;;;;;;;342.83;325.52;;;;;;;;;;5024782;28;20030;-62
2022/06/19 08:54:39;;;;;;;288.80;274.40;;;;;;;;;;5017707;28;20034;-60
2022/06/19 08:57:16;;;;;;;364.98;346.42;;;;;;;;;;5018484;28;20041;-61
2022/06/19 08:59:45;;;;;;;405.17;384.13;;;;;;;;;;5018856;28;20124;-61
2022/06/19 09:02:25;;;;;;;381.63;362.10;;;;;;;;;;5020147;28;20048;-61
2022/06/19 09:08:01;;;;;;;357.13;339.02;;;;;;;;;;5018250;28;20030;-61
2022/06/19 09:10:51;;;;;;;380.00;360.52;;;;;;;;;;5018700;28;20044;-62
2022/06/19 09:13:42;;;;;;;323.10;307.00;;;;;;;;;;5016955;28;20519;-61
2022/06/19 09:16:19;;;;;;;320.63;304.60;;;;;;;;;;5016953;28;20022;-61
2022/06/19 09:19:00;;;;;;;334.95;318.13;;;;;;;;;;5018871;28;20113;-62
2022/06/19 09:21:33;;;;;;;349.00;331.42;;;;;;;;;;5016844;28;20578;-61
2022/06/19 09:24:08;;;;;;;314.90;299.23;;;;;;;;;;5019664;28;20033;-62
2022/06/19 09:26:46;;;;;;;271.88;258.52;;;;;;;;;;5035178;28;20033;-61
2022/06/19 09:29:58;;;;;;;269.75;256.33;;;;;;;;;;5019946;28;20398;-61
2022/06/19 09:32:35;;;;;;;244.77;232.75;;;;;;;;;;5013519;28;20124;-61
2022/06/19 09:35:18;;;;;;;211.13;200.60;;;;;;;;;;5018791;28;20030;-62
2022/06/19 09:37:59;;;;;;;224.20;213.20;;;;;;;;;;5019449;28;20065;-60
2022/06/19 09:40:37;;;;;;;228.07;215.70;;;;;;;;;;5019201;28;20041;-61
2022/06/19 09:43:35;;;;;;;221.20;210.40;;;;;;;;;;5019662;28;20108;-61
2022/06/19 09:46:06;;;;;;;216.60;205.95;;;;;;;;;;5017026;28;20050;-60
2022/06/19 09:48:32;;;;;;;220.77;209.93;;;;;;;;;;5019538;28;20033;-62
2022/06/19 09:51:31;;;;;;;197.98;188.25;;;;;;;;;;5011357;28;20044;-61
2022/06/19 09:54:28;;;;;;;192.98;183.30;;;;;;;;;;5030170;28;20115;-62
2022/06/19 09:57:09;;;;;;;214.18;202.48;;;;;;;;;;5014622;28;20334;-62
2022/06/19 09:59:48;;;;;;;195.55;185.95;;;;;;;;;;5013416;28;20030;-62
2022/06/19 10:02:37;;;;;;;188.23;178.95;;;;;;;;;;5014035;28;20067;-62
2022/06/19 10:05:15;;;;;;;192.55;183.05;;;;;;;;;;5014546;28;20041;-61
2022/06/19 10:08:05;;;;;;;186.63;177.45;;;;;;;;;;5014801;28;20037;-62
2022/06/19 10:10:44;;;;;;;173.20;164.65;;;;;;;;;;5012645;28;20048;-62
2022/06/19 10:13:20;;;;;;;196.98;187.27;;;;;;;;;;5013241;28;20094;-62
2022/06/19 10:15:47;;;;;;;183.95;174.85;;;;;;;;;;5013375;28;20522;-63
2022/06/19 10:18:13;;;;;;;218.38;207.65;;;;;;;;;;5012941;28;20049;-61
2022/06/19 10:22:13;;;;;;;172.25;163.73;;;;;;;;;;5014192;28;20034;-61
2022/06/19 10:24:15;;;;;;;181.18;172.20;;;;;;;;;;5013646;28;20139;-63
2022/06/19 10:27:05;;;;;;;172.57;163.93;;;;;;;;;;5018351;28;20031;-62
2022/06/19 10:29:43;;;;;;;180.48;171.50;;;;;;;;;;5012470;28;20107;-62
2022/06/19 10:32:20;;;;;;;188.75;179.27;;;;;;;;;;5015492;28;20056;-61
2022/06/19 10:35:23;;;;;;;183.48;174.40;;;;;;;;;;5014644;28;20029;-61
2022/06/19 10:38:13;;;;;;;168.93;160.48;;;;;;;;;;5015252;28;20766;-63
2022/06/19 10:40:45;;;;;;;177.10;168.32;;;;;;;;;;5021058;28;20034;-62
2022/06/19 10:43:28;;;;;;;182.45;173.40;;;;;;;;;;5014678;28;20667;-62
2022/06/19 10:45:56;;;;;;;184.18;174.95;;;;;;;;;;5011617;28;20076;-62
2022/06/19 10:48:57;;;;;;;178.10;169.32;;;;;;;;;;5027577;28;20069;-62
2022/06/19 10:51:38;;;;;;;168.82;160.45;;;;;;;;;;5011740;28;20038;-63
2022/06/19 10:54:23;;;;;;;176.00;167.25;;;;;;;;;;5012184;28;20578;-63
2022/06/19 10:57:16;;;;;;;181.18;172.05;;;;;;;;;;5017052;28;20042;-62
2022/06/19 10:59:41;;;;;;;161.50;153.48;;;;;;;;;;5014569;28;20029;-62
2022/06/19 11:05:39;;;;;;;165.32;157.07;;;;;;;;;;5013682;28;20049;-67
2022/06/19 11:08:04;;;;;;;171.25;162.77;;;;;;;;;;5015079;28;20786;-68
2022/06/19 11:10:41;;;;;;;172.63;163.05;;;;;;;;;;5010038;28;20116;-67
2022/06/19 11:13:08;;;;;;;173.48;164.82;;;;;;;;;;5011045;28;20693;-67
2022/06/19 11:15:48;;;;;;;174.32;165.60;;;;;;;;;;5011897;28;20116;-66
2022/06/19 11:18:20;;;;;;;177.32;168.57;;;;;;;;;;5010281;28;20037;-67
2022/06/19 11:20:59;;;;;;;205.13;194.93;;;;;;;;;;5011523;28;20026;-67
2022/06/19 11:23:56;;;;;;;239.63;227.65;;;;;;;;;;5009905;28;20045;-66
2022/06/19 11:26:28;;;;;;;207.68;197.38;;;;;;;;;;4990999;28;20184;-67
2022/06/19 11:29:04;;;;;;;257.50;244.68;;;;;;;;;;5012624;28;20033;-66
2022/06/19 11:31:35;;;;;;;289.70;275.33;;;;;;;;;;5015647;28;20427;-66
2022/06/19 11:37:25;;;;;;;302.88;287.77;;;;;;;;;;5013418;28;20127;-68
2022/06/19 11:39:56;;;;;;;300.48;285.48;;;;;;;;;;5011972;28;20507;-68
2022/06/19 11:42:36;;;;;;;295.33;280.55;;;;;;;;;;5013386;28;20041;-67
2022/06/19 11:45:04;;;;;;;;;;;;;;;;;;5015852;28;20030;-68
2022/06/19 11:47:35;;;;;;;256.13;242.90;;;;;;;;;;5014273;28;19997;-69
2022/06/19 11:50:08;;;;;;;299.30;284.27;;;;;;;;;;5017183;28;20030;-69
2022/06/19 11:52:33;;;;;;;297.27;282.38;;;;;;;;;;5013834;28;20048;-69
2022/06/19 11:55:01;;;;;;;328.48;311.80;;;;;;;;;;5013364;28;20018;-69
2022/06/19 11:57:30;;;;;;;329.77;313.10;;;;;;;;;;5013198;28;20388;-69
2022/06/19 11:59:56;;;;;;;;;;;;;;;;;;5018973;28;20038;-69
2022/06/19 12:02:30;;;;;;;323.58;307.30;;;;;;;;;;5012438;28;19991;-69
2022/06/19 12:05:00;;;;;;;335.88;318.98;;;;;;;;;;5014487;28;20472;-70
2022/06/19 12:07:29;;;;;;;343.73;326.33;;;;;;;;;;5011308;28;20040;-69
2022/06/19 12:10:04;;;;;;;365.48;346.83;;;;;;;;;;5013320;28;20542;-69
2022/06/19 12:12:32;;;;;;;350.42;332.60;;;;;;;;;;5013130;28;20554;-69
2022/06/19 12:15:13;;;;;;;318.80;302.88;;;;;;;;;;5015374;28;20040;-69
2022/06/19 12:17:43;;;;;;;363.30;344.73;;;;;;;;;;5016938;28;20451;-69
2022/06/19 12:20:09;;;;;;;366.70;347.92;;;;;;;;;;5015690;28;20523;-69
2022/06/19 12:23:05;;;;;;;360.20;341.80;;;;;;;;;;5016199;28;20072;-69
2022/06/19 12:25:37;;;;;;;324.35;307.98;;;;;;;;;;5015472;28;20124;-69
2022/06/19 12:28:15;;;;;;;307.35;292.10;;;;;;;;;;5018343;28;20073;-68
2022/06/19 12:30:55;;;;;;;200.88;191.02;;;;;;;;;;5017206;28;20025;-68
2022/06/19 12:33:27;;;;;;;232.82;221.48;;;;;;;;;;5014870;28;20048;-68
2022/06/19 12:35:53;;;;;;;235.95;224.35;;;;;;;;;;5017233;28;20116;-67
2022/06/19 12:38:21;;;;;;;305.13;289.98;;;;;;;;;;5019689;28;20426;-68
2022/06/19 12:40:46;;;;;;;321.23;305.23;;;;;;;;;;5021145;28;20034;-68
2022/06/19 12:43:23;;;;;;;298.17;283.35;;;;;;;;;;5018077;28;20044;-68
2022/06/19 12:45:56;;;;;;;278.13;264.45;;;;;;;;;;5021607;28;20049;-68
2022/06/19 12:48:34;;;;;;;367.33;348.60;;;;;;;;;;5019404;28;20081;-68
2022/06/19 12:51:15;;;;;;;239.23;227.43;;;;;;;;;;5018979;28;20546;-68
2022/06/19 12:54:11;;;;;;;188.75;179.43;;;;;;;;;;5013510;28;20033;-67
2022/06/19 12:56:53;;;;;;;194.60;185.00;;;;;;;;;;5014687;28;20140;-67
2022/06/19 12:59:22;;;;;;;164.85;156.65;;;;;;;;;;5015967;28;20030;-68
2022/06/19 13:02:10;;;;;;;194.70;185.07;;;;;;;;;;5017152;28;20038;-67
2022/06/19 13:04:57;;;;;;;156.73;148.85;;;;;;;;;;5028709;28;20037;-67
2022/06/19 13:07:29;;;;;;;297.80;282.95;;;;;;;;;;5016759;28;20040;-68
2022/06/19 13:10:32;;;;;;;165.85;157.65;;;;;;;;;;5018435;28;20368;-68
2022/06/19 13:13:06;;;;;;;166.77;157.57;;;;;;;;;;5014358;28;20040;-68
2022/06/19 13:15:53;;;;;;;176.50;167.75;;;;;;;;;;5012151;28;20035;-68
2022/06/19 13:18:38;;;;;;;172.25;163.73;;;;;;;;;;5015034;28;20056;-69
2022/06/19 13:21:19;;;;;;;182.02;173.00;;;;;;;;;;5015224;28;20038;-68
2022/06/19 13:24:03;;;;;;;182.10;173.02;;;;;;;;;;5010892;28;20033;-68
2022/06/19 13:29:31;;;;;;;229.00;217.40;;;;;;;;;;5012904;28;20042;-69
2022/06/19 13:32:07;;;;;;;232.77;221.35;;;;;;;;;;5011962;28;20387;-69
2022/06/19 13:34:54;;;;;;;217.95;207.18;;;;;;;;;;5012671;28;20051;-69
2022/06/19 13:37:38;;;;;;;255.38;242.90;;;;;;;;;;5017872;28;20037;-68
2022/06/19 13:40:23;;;;;;;277.88;264.20;;;;;;;;;;5017138;28;20080;-69
2022/06/19 13:43:29;;;;;;;344.38;327.10;;;;;;;;;;5018329;28;20041;-69
2022/06/19 13:46:18;;;;;;;372.98;354.02;;;;;;;;;;5017853;28;20045;-69
2022/06/19 13:49:12;;;;;;;381.20;361.85;;;;;;;;;;5018930;28;20200;-69
2022/06/19 13:51:55;;;;;;;369.38;349.13;;;;;;;;;;5017570;28;20065;-69
2022/06/19 13:54:31;;;;;;;372.70;353.80;;;;;;;;;;5023926;28;20116;-69
2022/06/19 13:57:06;;;;;;;362.20;343.63;;;;;;;;;;5018272;28;20580;-68
2022/06/19 14:00:09;;;;;;;358.05;339.98;;;;;;;;;;5013653;28;20042;-69
2022/06/19 14:02:58;;;;;;;365.35;346.77;;;;;;;;;;5012996;28;20029;-69
2022/06/19 14:05:37;;;;;;;367.38;348.70;;;;;;;;;;5017064;28;20399;-69
2022/06/19 14:08:11;;;;;;;389.83;369.93;;;;;;;;;;5015442;28;20102;-69
2022/06/19 14:10:57;;;;;;;426.45;404.17;;;;;;;;;;5016922;28;20277;-69
2022/06/19 14:13:25;;;;;;;321.50;305.42;;;;;;;;;;5018491;28;20033;-69
2022/06/19 14:16:02;;;;;;;318.85;302.80;;;;;;;;;;5016985;28;20551;-69
2022/06/19 14:18:47;;;;;;;303.70;288.60;;;;;;;;;;5014626;28;20037;-68
2022/06/19 14:21:33;;;;;;;328.20;311.67;;;;;;;;;;5017709;28;20609;-68
2022/06/19 14:24:01;;;;;;;306.08;290.77;;;;;;;;;;5015400;28;20057;-67
2022/06/19 14:26:36;;;;;;;301.80;286.75;;;;;;;;;;5015445;28;20052;-67
2022/06/19 14:29:32;;;;;;;309.30;293.85;;;;;;;;;;5016276;28;20523;-67
2022/06/19 14:31:59;;;;;;;290.30;275.83;;;;;;;;;;5018370;28;20032;-69
2022/06/19 14:34:43;;;;;;;283.95;269.90;;;;;;;;;;5014781;28;20032;-68
2022/06/19 14:37:21;;;;;;;277.02;263.23;;;;;;;;;;5014597;28;20121;-68
2022/06/19 14:39:47;;;;;;;290.05;274.98;;;;;;;;;;5017203;28;20046;-67
2022/06/19 14:42:14;;;;;;;281.52;267.52;;;;;;;;;;5017722;28;20042;-65
2022/06/19 14:44:49;;;;;;;260.33;247.43;;;;;;;;;;5016719;28;20104;-68